sensor_id;sensor_type;location;lat;lon;timestamp;pressure;altitude;pressure_sealevel;temperature;humidity
14117;BME280;7137;51.436;6.544;2023-05-10T00:02:53;100405.50;;;13.84;100.00
14117;BME280;7137;51.436;6.544;2023-05-10T00:05:54;100408.13;;;13.84;100.00
14117;BME280;7137;51.436;6.544;2023-05-10T00:08:57;100399.00;;;13.74;100.00
14117;BME280;7137;51.436;6.544;2023-05-10T00:11:59;100398.84;;;13.77;100.00
14117;BME280;7137;51.436;6.544;2023-05-10T00:15:01;100398.16;;;13.74;100.00
14117;BME280;7137;51.436;6.544;2023-05-10T00:18:03;100396.47;;;13.73;100.00
14117;BME280;7137;51.436;6.544;2023-05-10T00:21:05;100395.78;;;13.69;100.00
14117;BME280;7137;51.436;6.544;2023-05-10T00:24:08;100400.78;;;13.74;100.00
14117;BME280;7137;51.436;6.544;2023-05-10T00:27:09;100402.47;;;13.75;100.00
14117;BME280;7137;51.436;6.544;2023-05-10T00:30:11;100399.84;;;13.75;100.00
14117;BME280;7137;51.436;6.544;2023-05-10T00:33:12;100403.34;;;13.75;100.00
14117;BME280;7137;51.436;6.544;2023-05-10T00:36:14;100407.81;;;13.90;100.00
14117;BME280;7137;51.436;6.544;2023-05-10T00:39:17;100393.75;;;13.91;100.00
14117;BME280;7137;51.436;6.544;2023-05-10T00:42:18;100406.44;;;14.01;100.00
14117;BME280;7137;51.436;6.544;2023-05-10T00:45:20;100408.47;;;13.95;100.00
14117;BME280;7137;51.436;6.544;2023-05-10T00:48:22;100401.88;;;13.87;100.00
14117;BME280;7137;51.436;6.544;2023-05-10T00:51:23;100408.06;;;13.86;100.00
14117;BME280;7137;51.436;6.544;2023-05-10T00:54:27;100405.97;;;13.75;100.00
14117;BME280;7137;51.436;6.544;2023-05-10T00:57:29;100401.72;;;13.73;100.00
14117;BME280;7137;51.436;6.544;2023-05-10T01:00:32;100416.25;;;13.80;100.00
14117;BME280;7137;51.436;6.544;2023-05-10T01:03:34;100405.75;;;13.97;100.00
14117;BME280;7137;51.436;6.544;2023-05-10T01:06:37;100412.69;;;13.98;100.00
14117;BME280;7137;51.436;6.544;2023-05-10T01:09:40;100407.75;;;14.09;100.00
14117;BME280;7137;51.436;6.544;2023-05-10T01:12:43;100407.06;;;14.23;100.00
14117;BME280;7137;51.436;6.544;2023-05-10T01:15:46;100407.56;;;14.30;100.00
14117;BME280;7137;51.436;6.544;2023-05-10T01:18:48;100407.97;;;14.05;100.00
14117;BME280;7137;51.436;6.544;2023-05-10T01:21:57;100401.16;;;14.18;100.00
14117;BME280;7137;51.436;6.544;2023-05-10T01:32:16;100413.44;;;14.35;100.00
14117;BME280;7137;51.436;6.544;2023-05-10T01:35:26;100408.13;;;14.36;100.00
14117;BME280;7137;51.436;6.544;2023-05-10T01:38:37;100409.44;;;14.27;100.00
14117;BME280;7137;51.436;6.544;2023-05-10T01:41:48;100403.56;;;14.05;100.00
14117;BME280;7137;51.436;6.544;2023-05-10T01:44:56;100408.88;;;14.21;100.00
14117;BME280;7137;51.436;6.544;2023-05-10T01:48:05;100410.28;;;14.28;100.00
14117;BME280;7137;51.436;6.544;2023-05-10T01:51:08;100415.53;;;14.28;100.00
14117;BME280;7137;51.436;6.544;2023-05-10T01:54:12;100408.88;;;14.38;100.00
14117;BME280;7137;51.436;6.544;2023-05-10T01:57:16;100414.00;;;14.24;100.00
14117;BME280;7137;51.436;6.544;2023-05-10T02:00:19;100413.38;;;14.19;100.00
14117;BME280;7137;51.436;6.544;2023-05-10T02:03:24;100406.28;;;14.04;100.00
14117;BME280;7137;51.436;6.544;2023-05-10T02:06:27;100412.63;;;13.82;100.00
14117;BME280;7137;51.436;6.544;2023-05-10T02:09:30;100405.34;;;13.70;100.00
14117;BME280;7137;51.436;6.544;2023-05-10T02:12:35;100412.47;;;13.85;100.00
14117;BME280;7137;51.436;6.544;2023-05-10T02:15:38;100420.75;;;13.95;100.00
14117;BME280;7137;51.436;6.544;2023-05-10T02:18:43;100412.06;;;13.93;100.00
14117;BME280;7137;51.436;6.544;2023-05-10T02:21:45;100417.03;;;13.82;100.00
14117;BME280;7137;51.436;6.544;2023-05-10T02:24:47;100428.13;;;13.87;100.00
14117;BME280;7137;51.436;6.544;2023-05-10T02:27:53;100420.63;;;13.79;100.00
14117;BME280;7137;51.436;6.544;2023-05-10T02:30:56;100425.66;;;13.84;100.00
14117;BME280;7137;51.436;6.544;2023-05-10T02:34:00;100418.31;;;13.73;100.00
14117;BME280;7137;51.436;6.544;2023-05-10T02:37:03;100417.03;;;13.82;100.00
14117;BME280;7137;51.436;6.544;2023-05-10T02:40:07;100419.84;;;13.77;100.00
14117;BME280;7137;51.436;6.544;2023-05-10T02:43:12;100426.19;;;13.90;100.00
14117;BME280;7137;51.436;6.544;2023-05-10T02:46:15;100434.16;;;13.89;100.00
14117;BME280;7137;51.436;6.544;2023-05-10T02:49:19;100421.94;;;13.71;100.00
14117;BME280;7137;51.436;6.544;2023-05-10T02:52:23;100428.69;;;13.93;100.00
14117;BME280;7137;51.436;6.544;2023-05-10T02:55:30;100425.84;;;13.98;100.00
14117;BME280;7137;51.436;6.544;2023-05-10T02:58:33;100422.19;;;13.83;100.00
14117;BME280;7137;51.436;6.544;2023-05-10T03:01:34;100423.25;;;13.79;100.00
14117;BME280;7137;51.436;6.544;2023-05-10T03:04:37;100426.34;;;13.70;100.00
14117;BME280;7137;51.436;6.544;2023-05-10T03:07:39;100417.97;;;13.62;100.00
14117;BME280;7137;51.436;6.544;2023-05-10T03:10:47;100432.13;;;13.59;100.00
14117;BME280;7137;51.436;6.544;2023-05-10T03:13:59;100426.50;;;13.31;100.00
14117;BME280;7137;51.436;6.544;2023-05-10T03:17:06;100427.59;;;13.44;100.00
14117;BME280;7137;51.436;6.544;2023-05-10T03:20:18;100438.03;;;13.46;100.00
14117;BME280;7137;51.436;6.544;2023-05-10T03:23:26;100440.75;;;13.25;100.00
14117;BME280;7137;51.436;6.544;2023-05-10T03:26:28;100440.72;;;13.44;100.00
14117;BME280;7137;51.436;6.544;2023-05-10T03:29:31;100446.31;;;13.55;100.00
14117;BME280;7137;51.436;6.544;2023-05-10T03:32:33;100452.16;;;13.43;100.00
14117;BME280;7137;51.436;6.544;2023-05-10T03:35:36;100454.81;;;13.60;100.00
14117;BME280;7137;51.436;6.544;2023-05-10T03:38:38;100452.97;;;13.62;100.00
14117;BME280;7137;51.436;6.544;2023-05-10T03:41:39;100455.88;;;13.56;100.00
14117;BME280;7137;51.436;6.544;2023-05-10T03:44:41;100457.78;;;13.89;100.00
14117;BME280;7137;51.436;6.544;2023-05-10T03:47:43;100453.03;;;13.97;100.00
14117;BME280;7137;51.436;6.544;2023-05-10T03:50:46;100451.00;;;13.85;100.00
14117;BME280;7137;51.436;6.544;2023-05-10T03:53:49;100460.88;;;13.80;100.00
14117;BME280;7137;51.436;6.544;2023-05-10T03:56:51;100467.22;;;13.57;100.00
14117;BME280;7137;51.436;6.544;2023-05-10T03:59:52;100463.81;;;13.91;100.00
14117;BME280;7137;51.436;6.544;2023-05-10T04:02:54;100462.09;;;13.73;100.00
14117;BME280;7137;51.436;6.544;2023-05-10T04:06:00;100460.97;;;13.95;100.00
14117;BME280;7137;51.436;6.544;2023-05-10T04:09:02;100460.06;;;13.96;100.00
14117;BME280;7137;51.436;6.544;2023-05-10T04:12:05;100462.53;;;14.17;100.00
14117;BME280;7137;51.436;6.544;2023-05-10T04:15:07;100471.66;;;14.27;100.00
14117;BME280;7137;51.436;6.544;2023-05-10T04:18:09;100474.72;;;14.35;100.00
14117;BME280;7137;51.436;6.544;2023-05-10T04:21:12;100464.06;;;14.21;100.00
14117;BME280;7137;51.436;6.544;2023-05-10T04:24:15;100472.94;;;14.01;100.00
14117;BME280;7137;51.436;6.544;2023-05-10T04:27:16;100469.69;;;14.31;100.00
14117;BME280;7137;51.436;6.544;2023-05-10T04:30:18;100471.41;;;14.14;100.00
14117;BME280;7137;51.436;6.544;2023-05-10T04:33:20;100472.88;;;14.20;100.00
14117;BME280;7137;51.436;6.544;2023-05-10T04:36:22;100474.47;;;14.05;100.00
14117;BME280;7137;51.436;6.544;2023-05-10T04:39:24;100478.34;;;14.15;100.00
14117;BME280;7137;51.436;6.544;2023-05-10T04:42:26;100476.75;;;14.47;100.00
14117;BME280;7137;51.436;6.544;2023-05-10T04:45:27;100472.72;;;14.58;100.00
14117;BME280;7137;51.436;6.544;2023-05-10T04:48:29;100477.31;;;14.54;100.00
14117;BME280;7137;51.436;6.544;2023-05-10T04:51:32;100478.16;;;14.54;100.00
14117;BME280;7137;51.436;6.544;2023-05-10T04:54:33;100476.53;;;14.52;100.00
14117;BME280;7137;51.436;6.544;2023-05-10T04:57:35;100476.66;;;14.66;100.00
14117;BME280;7137;51.436;6.544;2023-05-10T05:00:36;100482.28;;;14.76;100.00
14117;BME280;7137;51.436;6.544;2023-05-10T05:03:38;100482.91;;;14.81;100.00
14117;BME280;7137;51.436;6.544;2023-05-10T05:06:42;100487.91;;;14.85;100.00
14117;BME280;7137;51.436;6.544;2023-05-10T05:09:43;100497.53;;;14.69;100.00
14117;BME280;7137;51.436;6.544;2023-05-10T05:12:45;100493.84;;;14.56;100.00
14117;BME280;7137;51.436;6.544;2023-05-10T05:15:47;100493.69;;;14.59;100.00
14117;BME280;7137;51.436;6.544;2023-05-10T05:18:48;100498.91;;;14.76;100.00
14117;BME280;7137;51.436;6.544;2023-05-10T05:21:51;100501.47;;;14.78;100.00
14117;BME280;7137;51.436;6.544;2023-05-10T05:24:53;100504.44;;;14.88;100.00
14117;BME280;7137;51.436;6.544;2023-05-10T05:27:54;100507.50;;;14.80;100.00
14117;BME280;7137;51.436;6.544;2023-05-10T05:30:56;100510.69;;;14.69;100.00
14117;BME280;7137;51.436;6.544;2023-05-10T05:33:57;100512.00;;;14.78;100.00
14117;BME280;7137;51.436;6.544;2023-05-10T05:37:00;100513.75;;;14.77;100.00
14117;BME280;7137;51.436;6.544;2023-05-10T05:40:02;100522.00;;;14.54;100.00
14117;BME280;7137;51.436;6.544;2023-05-10T05:43:04;100520.31;;;14.34;100.00
14117;BME280;7137;51.436;6.544;2023-05-10T05:46:05;100522.34;;;14.64;100.00
14117;BME280;7137;51.436;6.544;2023-05-10T05:49:07;100528.25;;;14.69;100.00
14117;BME280;7137;51.436;6.544;2023-05-10T05:52:10;100525.19;;;14.76;100.00
14117;BME280;7137;51.436;6.544;2023-05-10T05:55:11;100523.66;;;14.72;100.00
14117;BME280;7137;51.436;6.544;2023-05-10T05:58:13;100527.63;;;14.46;100.00
14117;BME280;7137;51.436;6.544;2023-05-10T06:01:14;100529.53;;;14.77;100.00
14117;BME280;7137;51.436;6.544;2023-05-10T06:04:17;100536.81;;;14.72;100.00
14117;BME280;7137;51.436;6.544;2023-05-10T06:07:19;100548.72;;;14.45;100.00
14117;BME280;7137;51.436;6.544;2023-05-10T06:10:22;100542.91;;;14.38;100.00
14117;BME280;7137;51.436;6.544;2023-05-10T06:13:25;100545.03;;;14.66;100.00
14117;BME280;7137;51.436;6.544;2023-05-10T06:16:29;100540.44;;;14.87;100.00
14117;BME280;7137;51.436;6.544;2023-05-10T06:19:30;100551.44;;;14.61;100.00
14117;BME280;7137;51.436;6.544;2023-05-10T06:22:33;100557.00;;;14.54;100.00
14117;BME280;7137;51.436;6.544;2023-05-10T06:25:35;100555.91;;;14.59;100.00
14117;BME280;7137;51.436;6.544;2023-05-10T06:28:37;100561.72;;;14.65;100.00
14117;BME280;7137;51.436;6.544;2023-05-10T06:31:39;100562.50;;;14.67;100.00
14117;BME280;7137;51.436;6.544;2023-05-10T06:34:41;100563.28;;;14.52;100.00
14117;BME280;7137;51.436;6.544;2023-05-10T06:37:45;100565.75;;;14.19;100.00
14117;BME280;7137;51.436;6.544;2023-05-10T06:40:46;100566.94;;;14.31;100.00
14117;BME280;7137;51.436;6.544;2023-05-10T06:43:48;100560.81;;;14.30;100.00
14117;BME280;7137;51.436;6.544;2023-05-10T06:46:50;100569.38;;;14.52;100.00
14117;BME280;7137;51.436;6.544;2023-05-10T06:49:52;100570.69;;;14.61;100.00
14117;BME280;7137;51.436;6.544;2023-05-10T06:52:56;100568.34;;;14.90;100.00
14117;BME280;7137;51.436;6.544;2023-05-10T06:55:58;100579.97;;;14.85;100.00
14117;BME280;7137;51.436;6.544;2023-05-10T06:58:59;100572.59;;;15.09;100.00
14117;BME280;7137;51.436;6.544;2023-05-10T07:02:01;100574.91;;;15.31;100.00
14117;BME280;7137;51.436;6.544;2023-05-10T07:05:03;100581.19;;;15.62;100.00
14117;BME280;7137;51.436;6.544;2023-05-10T07:08:06;100578.50;;;15.79;100.00
14117;BME280;7137;51.436;6.544;2023-05-10T07:11:08;100585.28;;;15.83;99.56
14117;BME280;7137;51.436;6.544;2023-05-10T07:14:10;100587.50;;;15.75;99.76
14117;BME280;7137;51.436;6.544;2023-05-10T07:17:12;100584.34;;;15.84;100.00
14117;BME280;7137;51.436;6.544;2023-05-10T07:20:13;100587.00;;;15.84;99.07
14117;BME280;7137;51.436;6.544;2023-05-10T07:23:16;100589.72;;;15.98;100.00
14117;BME280;7137;51.436;6.544;2023-05-10T07:26:18;100589.63;;;16.46;98.43
14117;BME280;7137;51.436;6.544;2023-05-10T07:29:21;100593.00;;;16.02;99.63
14117;BME280;7137;51.436;6.544;2023-05-10T07:32:23;100588.34;;;16.23;98.83
14117;BME280;7137;51.436;6.544;2023-05-10T07:35:24;100593.53;;;15.93;100.00
14117;BME280;7137;51.436;6.544;2023-05-10T07:38:27;100587.66;;;16.03;97.49
14117;BME280;7137;51.436;6.544;2023-05-10T07:41:29;100596.47;;;16.18;95.90
14117;BME280;7137;51.436;6.544;2023-05-10T07:44:30;100605.38;;;16.31;97.82
14117;BME280;7137;51.436;6.544;2023-05-10T07:47:32;100606.19;;;16.02;97.26
14117;BME280;7137;51.436;6.544;2023-05-10T07:50:34;100609.78;;;16.92;95.43
14117;BME280;7137;51.436;6.544;2023-05-10T07:53:37;100603.69;;;16.30;93.11
14117;BME280;7137;51.436;6.544;2023-05-10T07:56:38;100609.53;;;16.51;93.44
14117;BME280;7137;51.436;6.544;2023-05-10T07:59:44;100614.94;;;15.87;94.83
14117;BME280;7137;51.436;6.544;2023-05-10T08:02:47;100617.50;;;15.55;98.18
14117;BME280;7137;51.436;6.544;2023-05-10T08:05:49;100620.50;;;20.23;83.36
14117;BME280;7137;51.436;6.544;2023-05-10T08:08:51;100630.00;;;21.77;71.35
14117;BME280;7137;51.436;6.544;2023-05-10T08:11:54;100632.97;;;20.46;72.16
14117;BME280;7137;51.436;6.544;2023-05-10T08:14:55;100634.84;;;19.83;73.58
14117;BME280;7137;51.436;6.544;2023-05-10T08:17:57;100631.16;;;19.35;75.74
14117;BME280;7137;51.436;6.544;2023-05-10T08:20:58;100634.53;;;19.88;73.48
14117;BME280;7137;51.436;6.544;2023-05-10T08:24:01;100634.91;;;20.31;72.62
14117;BME280;7137;51.436;6.544;2023-05-10T08:27:04;100637.84;;;19.66;73.60
14117;BME280;7137;51.436;6.544;2023-05-10T08:30:07;100648.13;;;19.20;73.71
14117;BME280;7137;51.436;6.544;2023-05-10T08:33:09;100648.81;;;18.96;76.91
14117;BME280;7137;51.436;6.544;2023-05-10T08:36:10;100649.03;;;20.32;70.40
14117;BME280;7137;51.436;6.544;2023-05-10T08:39:15;100646.50;;;20.30;71.99
14117;BME280;7137;51.436;6.544;2023-05-10T08:42:19;100646.50;;;19.81;70.68
14117;BME280;7137;51.436;6.544;2023-05-10T08:45:26;100651.72;;;19.32;70.82
14117;BME280;7137;51.436;6.544;2023-05-10T08:48:29;100660.22;;;18.84;74.35
14117;BME280;7137;51.436;6.544;2023-05-10T08:51:36;100662.16;;;19.97;71.74
14117;BME280;7137;51.436;6.544;2023-05-10T08:54:39;100669.81;;;20.86;66.23
14117;BME280;7137;51.436;6.544;2023-05-10T08:57:42;100674.13;;;20.39;65.28
14117;BME280;7137;51.436;6.544;2023-05-10T09:00:44;100671.47;;;20.15;69.53
14117;BME280;7137;51.436;6.544;2023-05-10T09:03:46;100669.66;;;20.52;68.57
14117;BME280;7137;51.436;6.544;2023-05-10T09:06:48;100683.78;;;17.64;78.62
14117;BME280;7137;51.436;6.544;2023-05-10T09:09:51;100688.22;;;17.49;79.40
14117;BME280;7137;51.436;6.544;2023-05-10T09:12:53;100685.22;;;17.11;81.89
14117;BME280;7137;51.436;6.544;2023-05-10T09:15:55;100686.22;;;16.94;85.51
14117;BME280;7137;51.436;6.544;2023-05-10T09:18:56;100689.94;;;16.13;88.64
14117;BME280;7137;51.436;6.544;2023-05-10T09:21:58;100686.53;;;16.26;86.40
14117;BME280;7137;51.436;6.544;2023-05-10T09:25:06;100700.03;;;16.04;87.97
14117;BME280;7137;51.436;6.544;2023-05-10T09:28:08;100695.94;;;15.99;87.43
14117;BME280;7137;51.436;6.544;2023-05-10T09:31:10;100700.81;;;15.91;87.80
14117;BME280;7137;51.436;6.544;2023-05-10T09:34:15;100704.56;;;16.34;87.77
14117;BME280;7137;51.436;6.544;2023-05-10T09:37:18;100702.84;;;16.80;85.78
14117;BME280;7137;51.436;6.544;2023-05-10T09:40:31;100710.59;;;16.83;84.24
14117;BME280;7137;51.436;6.544;2023-05-10T09:43:37;100711.28;;;16.55;87.19
14117;BME280;7137;51.436;6.544;2023-05-10T09:46:39;100706.66;;;16.75;86.30
14117;BME280;7137;51.436;6.544;2023-05-10T09:49:41;100721.94;;;17.00;85.04
14117;BME280;7137;51.436;6.544;2023-05-10T09:52:48;100723.50;;;17.04;85.56
14117;BME280;7137;51.436;6.544;2023-05-10T09:55:51;100719.44;;;17.12;88.11
14117;BME280;7137;51.436;6.544;2023-05-10T09:59:02;100723.75;;;16.99;84.91
14117;BME280;7137;51.436;6.544;2023-05-10T10:02:03;100718.63;;;17.26;84.84
14117;BME280;7137;51.436;6.544;2023-05-10T10:05:07;100719.94;;;17.63;83.39
14117;BME280;7137;51.436;6.544;2023-05-10T10:08:09;100724.38;;;17.63;82.42
14117;BME280;7137;51.436;6.544;2023-05-10T10:11:13;100722.13;;;17.99;81.06
14117;BME280;7137;51.436;6.544;2023-05-10T10:14:16;100727.03;;;18.20;79.68
14117;BME280;7137;51.436;6.544;2023-05-10T10:17:19;100727.69;;;17.22;82.03
14117;BME280;7137;51.436;6.544;2023-05-10T10:20:22;100726.72;;;17.09;83.27
14117;BME280;7137;51.436;6.544;2023-05-10T10:23:26;100729.13;;;16.66;87.65
14117;BME280;7137;51.436;6.544;2023-05-10T10:26:30;100726.88;;;17.06;86.61
14117;BME280;7137;51.436;6.544;2023-05-10T10:29:36;100729.84;;;16.70;88.26
14117;BME280;7137;51.436;6.544;2023-05-10T10:36:06;100731.69;;;16.83;89.02
14117;BME280;7137;51.436;6.544;2023-05-10T10:39:10;100735.69;;;16.75;87.11
14117;BME280;7137;51.436;6.544;2023-05-10T10:42:13;100735.44;;;17.25;84.76
14117;BME280;7137;51.436;6.544;2023-05-10T10:45:15;100744.31;;;17.83;81.65
14117;BME280;7137;51.436;6.544;2023-05-10T10:48:20;100741.09;;;18.34;80.31
14117;BME280;7137;51.436;6.544;2023-05-10T10:51:22;100747.53;;;18.30;78.83
14117;BME280;7137;51.436;6.544;2023-05-10T10:54:27;100744.50;;;17.94;80.80
14117;BME280;7137;51.436;6.544;2023-05-10T10:57:42;100748.72;;;18.39;80.17
14117;BME280;7137;51.436;6.544;2023-05-10T11:00:43;100741.63;;;18.39;79.01
14117;BME280;7137;51.436;6.544;2023-05-10T11:04:19;100750.84;;;17.91;78.92
14117;BME280;7137;51.436;6.544;2023-05-10T11:07:21;100744.41;;;17.37;80.37
14117;BME280;7137;51.436;6.544;2023-05-10T11:10:24;100748.19;;;17.33;81.58
14117;BME280;7137;51.436;6.544;2023-05-10T11:13:28;100749.63;;;17.52;83.41
14117;BME280;7137;51.436;6.544;2023-05-10T11:16:41;100760.03;;;17.26;82.48
14117;BME280;7137;51.436;6.544;2023-05-10T11:20:06;100765.19;;;17.13;82.96
14117;BME280;7137;51.436;6.544;2023-05-10T11:23:11;100757.50;;;16.78;82.51
14117;BME280;7137;51.436;6.544;2023-05-10T11:26:16;100757.97;;;16.22;84.83
14117;BME280;7137;51.436;6.544;2023-05-10T11:29:18;100762.50;;;16.36;85.94
14117;BME280;7137;51.436;6.544;2023-05-10T11:32:20;100767.84;;;16.97;84.22
14117;BME280;7137;51.436;6.544;2023-05-10T11:35:23;100762.06;;;17.36;83.12
14117;BME280;7137;51.436;6.544;2023-05-10T11:38:25;100767.59;;;17.62;80.81
14117;BME280;7137;51.436;6.544;2023-05-10T11:41:28;100765.50;;;17.67;78.30
14117;BME280;7137;51.436;6.544;2023-05-10T11:44:31;100765.09;;;18.31;77.26
14117;BME280;7137;51.436;6.544;2023-05-10T11:47:33;100768.00;;;18.27;76.58
14117;BME280;7137;51.436;6.544;2023-05-10T11:50:38;100771.13;;;18.19;76.50
14117;BME280;7137;51.436;6.544;2023-05-10T11:53:40;100765.16;;;18.44;75.10
14117;BME280;7137;51.436;6.544;2023-05-10T11:56:41;100771.72;;;18.80;74.11
14117;BME280;7137;51.436;6.544;2023-05-10T11:59:43;100764.91;;;17.77;75.83
14117;BME280;7137;51.436;6.544;2023-05-10T12:02:46;100762.16;;;18.36;74.98
14117;BME280;7137;51.436;6.544;2023-05-10T12:05:49;100770.59;;;18.55;75.39
14117;BME280;7137;51.436;6.544;2023-05-10T12:08:51;100772.44;;;19.09;72.86
14117;BME280;7137;51.436;6.544;2023-05-10T12:11:55;100766.38;;;19.34;72.00
14117;BME280;7137;51.436;6.544;2023-05-10T12:14:57;100771.44;;;19.64;69.37
14117;BME280;7137;51.436;6.544;2023-05-10T12:17:59;100766.31;;;19.08;71.54
14117;BME280;7137;51.436;6.544;2023-05-10T12:21:04;100770.13;;;19.44;71.76
14117;BME280;7137;51.436;6.544;2023-05-10T12:24:07;100772.28;;;19.64;69.47
14117;BME280;7137;51.436;6.544;2023-05-10T12:27:08;100774.94;;;20.15;64.00
14117;BME280;7137;51.436;6.544;2023-05-10T12:30:12;100774.75;;;19.40;68.55
14117;BME280;7137;51.436;6.544;2023-05-10T12:33:14;100764.44;;;19.88;67.08
14117;BME280;7137;51.436;6.544;2023-05-10T12:36:24;100764.00;;;19.81;69.38
14117;BME280;7137;51.436;6.544;2023-05-10T12:39:26;100765.63;;;19.71;67.88
14117;BME280;7137;51.436;6.544;2023-05-10T12:42:27;100767.00;;;21.12;63.99
14117;BME280;7137;51.436;6.544;2023-05-10T12:45:29;100771.72;;;21.20;63.99
14117;BME280;7137;51.436;6.544;2023-05-10T12:48:31;100772.84;;;19.42;67.65
14117;BME280;7137;51.436;6.544;2023-05-10T12:51:35;100775.75;;;20.78;64.59
14117;BME280;7137;51.436;6.544;2023-05-10T12:54:36;100782.31;;;20.48;61.86
14117;BME280;7137;51.436;6.544;2023-05-10T12:57:38;100766.13;;;20.14;63.66
14117;BME280;7137;51.436;6.544;2023-05-10T13:00:40;100771.75;;;19.97;64.04
14117;BME280;7137;51.436;6.544;2023-05-10T13:03:41;100771.09;;;19.68;67.70
14117;BME280;7137;51.436;6.544;2023-05-10T13:06:45;100776.19;;;20.22;64.59
14117;BME280;7137;51.436;6.544;2023-05-10T13:09:47;100775.53;;;20.31;63.02
14117;BME280;7137;51.436;6.544;2023-05-10T13:12:48;100788.09;;;20.42;63.58
14117;BME280;7137;51.436;6.544;2023-05-10T13:15:50;100779.34;;;20.53;62.70
14117;BME280;7137;51.436;6.544;2023-05-10T13:18:51;100785.44;;;20.42;64.67
14117;BME280;7137;51.436;6.544;2023-05-10T13:21:54;100790.78;;;20.40;64.32
14117;BME280;7137;51.436;6.544;2023-05-10T13:24:55;100789.56;;;18.90;65.84
14117;BME280;7137;51.436;6.544;2023-05-10T13:27:57;100796.41;;;19.47;66.13
14117;BME280;7137;51.436;6.544;2023-05-10T13:30:58;100796.69;;;20.07;66.07
14117;BME280;7137;51.436;6.544;2023-05-10T13:34:01;100791.56;;;20.55;64.66
14117;BME280;7137;51.436;6.544;2023-05-10T13:37:04;100791.16;;;20.23;66.72
14117;BME280;7137;51.436;6.544;2023-05-10T13:40:06;100789.50;;;20.71;64.51
14117;BME280;7137;51.436;6.544;2023-05-10T13:43:08;100786.66;;;21.10;62.49
14117;BME280;7137;51.436;6.544;2023-05-10T13:46:10;100783.91;;;21.35;62.79
14117;BME280;7137;51.436;6.544;2023-05-10T13:49:11;100790.66;;;21.74;59.67
14117;BME280;7137;51.436;6.544;2023-05-10T13:52:14;100786.06;;;21.76;58.50
14117;BME280;7137;51.436;6.544;2023-05-10T13:55:16;100774.00;;;21.37;58.90
14117;BME280;7137;51.436;6.544;2023-05-10T13:58:17;100765.75;;;20.81;60.11
14117;BME280;7137;51.436;6.544;2023-05-10T14:01:19;100767.13;;;20.87;59.71
14117;BME280;7137;51.436;6.544;2023-05-10T14:04:21;100764.31;;;20.64;61.69
14117;BME280;7137;51.436;6.544;2023-05-10T14:07:23;100764.72;;;21.43;60.32
14117;BME280;7137;51.436;6.544;2023-05-10T14:10:25;100764.06;;;20.80;59.99
14117;BME280;7137;51.436;6.544;2023-05-10T14:13:27;100769.38;;;21.04;59.96
14117;BME280;7137;51.436;6.544;2023-05-10T14:16:28;100759.53;;;20.93;59.61
14117;BME280;7137;51.436;6.544;2023-05-10T14:19:30;100765.31;;;21.46;59.89
14117;BME280;7137;51.436;6.544;2023-05-10T14:22:34;100764.69;;;21.31;57.47
14117;BME280;7137;51.436;6.544;2023-05-10T14:25:36;100755.09;;;21.64;57.78
14117;BME280;7137;51.436;6.544;2023-05-10T14:28:38;100761.44;;;20.67;59.64
14117;BME280;7137;51.436;6.544;2023-05-10T14:31:39;100763.81;;;20.59;62.14
14117;BME280;7137;51.436;6.544;2023-05-10T14:34:41;100764.22;;;19.91;63.15
14117;BME280;7137;51.436;6.544;2023-05-10T14:37:44;100768.13;;;19.98;64.86
14117;BME280;7137;51.436;6.544;2023-05-10T14:40:45;100770.91;;;19.97;64.40
14117;BME280;7137;51.436;6.544;2023-05-10T14:43:47;100773.09;;;19.12;65.56
14117;BME280;7137;51.436;6.544;2023-05-10T14:46:49;100779.31;;;18.43;67.51
14117;BME280;7137;51.436;6.544;2023-05-10T14:49:50;100779.28;;;18.02;70.28
14117;BME280;7137;51.436;6.544;2023-05-10T14:52:53;100772.97;;;17.60;70.57
14117;BME280;7137;51.436;6.544;2023-05-10T14:55:55;100771.97;;;17.17;71.43
14117;BME280;7137;51.436;6.544;2023-05-10T14:58:57;100776.28;;;16.88;72.93
14117;BME280;7137;51.436;6.544;2023-05-10T15:01:59;100783.94;;;16.61;72.88
14117;BME280;7137;51.436;6.544;2023-05-10T15:05:01;100788.19;;;16.48;76.89
14117;BME280;7137;51.436;6.544;2023-05-10T15:08:04;100800.63;;;16.13;79.75
14117;BME280;7137;51.436;6.544;2023-05-10T15:11:05;100808.06;;;16.38;85.47
14117;BME280;7137;51.436;6.544;2023-05-10T15:14:07;100799.03;;;16.26;88.65
14117;BME280;7137;51.436;6.544;2023-05-10T15:17:08;100796.13;;;16.15;89.53
14117;BME280;7137;51.436;6.544;2023-05-10T15:20:11;100785.78;;;15.94;91.87
14117;BME280;7137;51.436;6.544;2023-05-10T15:23:14;100793.69;;;15.94;92.30
14117;BME280;7137;51.436;6.544;2023-05-10T15:26:15;100793.22;;;15.86;93.90
14117;BME280;7137;51.436;6.544;2023-05-10T15:29:17;100794.28;;;15.66;93.15
14117;BME280;7137;51.436;6.544;2023-05-10T15:32:20;100808.53;;;15.80;96.17
14117;BME280;7137;51.436;6.544;2023-05-10T15:35:21;100815.78;;;15.92;96.49
14117;BME280;7137;51.436;6.544;2023-05-10T15:38:24;100812.59;;;15.85;94.29
14117;BME280;7137;51.436;6.544;2023-05-10T15:41:26;100826.09;;;15.62;94.45
14117;BME280;7137;51.436;6.544;2023-05-10T15:44:28;100824.53;;;15.75;96.97
14117;BME280;7137;51.436;6.544;2023-05-10T15:47:29;100824.22;;;15.98;97.45
14117;BME280;7137;51.436;6.544;2023-05-10T15:50:31;100828.09;;;16.09;97.30
14117;BME280;7137;51.436;6.544;2023-05-10T15:53:35;100830.34;;;16.32;97.04
14117;BME280;7137;51.436;6.544;2023-05-10T15:56:36;100841.69;;;15.66;96.07
14117;BME280;7137;51.436;6.544;2023-05-10T15:59:38;100838.19;;;15.12;95.88
14117;BME280;7137;51.436;6.544;2023-05-10T16:02:40;100840.22;;;14.70;99.29
14117;BME280;7137;51.436;6.544;2023-05-10T16:05:41;100839.06;;;14.57;100.00
14117;BME280;7137;51.436;6.544;2023-05-10T16:08:44;100835.50;;;14.58;100.00
14117;BME280;7137;51.436;6.544;2023-05-10T16:11:46;100843.28;;;14.40;97.46
14117;BME280;7137;51.436;6.544;2023-05-10T16:14:48;100834.81;;;14.54;99.49